Avenel, New Jersey
Current Conditions -  °F | °C
As of 8:15 PM on Tuesday 27 Jan 2015 (Local Time) from KLDJ Reporting Station
Clear Clear  
Wind Chill: 17°   Ceiling: Unl
Heat Index: 28°   Visibility: 10mi
Dew Point: 14°   Wind: 14mph
Humidity: 55%   Direction: 330°NNW
Pressure: 29.8"   Gusts: 21mph
Location:  40.58°N, 74.28°W
Report Text: KLDJ 280115Z AUTO 33012G18KT 10SM CLR M02/M10 A2980 RMK AO2 T10201100
Loading
Personal Weather Stations






























Interactive Weather Map New forecast layout! Learn more

10-Day Weather Forecast

Advertisements
Track Severe Weather on mobile